sensor_id;sensor_type;location;lat;lon;timestamp;pressure;altitude;pressure_sealevel;temperature;humidity
78671;BME280;68277;52.724;6.516;2023-02-28T00:01:29;103198.78;;;3.01;70.10
78671;BME280;68277;52.724;6.516;2023-02-28T00:03:54;103202.31;;;3.01;72.18
78671;BME280;68277;52.724;6.516;2023-02-28T00:06:20;103200.50;;;3.00;71.86
78671;BME280;68277;52.724;6.516;2023-02-28T00:08:46;103199.59;;;3.00;72.18
78671;BME280;68277;52.724;6.516;2023-02-28T00:11:13;103195.22;;;2.99;70.32
78671;BME280;68277;52.724;6.516;2023-02-28T00:13:39;103195.28;;;3.00;68.91
78671;BME280;68277;52.724;6.516;2023-02-28T00:16:06;103199.75;;;3.03;72.24
78671;BME280;68277;52.724;6.516;2023-02-28T00:18:32;103191.84;;;3.01;69.76
78671;BME280;68277;52.724;6.516;2023-02-28T00:20:57;103191.84;;;3.01;70.78
78671;BME280;68277;52.724;6.516;2023-02-28T00:23:23;103186.63;;;3.01;76.75
78671;BME280;68277;52.724;6.516;2023-02-28T00:25:48;103185.72;;;3.01;74.71
78671;BME280;68277;52.724;6.516;2023-02-28T00:28:13;103182.19;;;3.00;70.70
78671;BME280;68277;52.724;6.516;2023-02-28T00:30:40;103181.38;;;3.01;73.99
78671;BME280;68277;52.724;6.516;2023-02-28T00:33:06;103183.91;;;3.00;68.93
78671;BME280;68277;52.724;6.516;2023-02-28T00:35:31;103183.00;;;2.99;69.21
78671;BME280;68277;52.724;6.516;2023-02-28T00:37:56;103190.09;;;3.02;70.76
78671;BME280;68277;52.724;6.516;2023-02-28T00:40:22;103187.50;;;3.02;69.48
78671;BME280;68277;52.724;6.516;2023-02-28T00:42:47;103188.41;;;3.02;71.43
78671;BME280;68277;52.724;6.516;2023-02-28T00:45:12;103183.16;;;3.02;69.60
78671;BME280;68277;52.724;6.516;2023-02-28T00:47:37;103190.19;;;3.03;76.21
78671;BME280;68277;52.724;6.516;2023-02-28T00:50:03;103178.78;;;3.01;71.54
78671;BME280;68277;52.724;6.516;2023-02-28T00:52:29;103182.19;;;3.00;69.74
78671;BME280;68277;52.724;6.516;2023-02-28T00:54:54;103182.25;;;3.02;71.61
78671;BME280;68277;52.724;6.516;2023-02-28T00:57:19;103184.00;;;3.01;71.40
78671;BME280;68277;52.724;6.516;2023-02-28T00:59:44;103183.09;;;3.01;70.39
78671;BME280;68277;52.724;6.516;2023-02-28T01:02:10;103184.88;;;3.02;71.51
78671;BME280;68277;52.724;6.516;2023-02-28T01:04:35;103178.78;;;3.01;70.15
78671;BME280;68277;52.724;6.516;2023-02-28T01:07:00;103184.88;;;3.02;74.37
78671;BME280;68277;52.724;6.516;2023-02-28T01:09:25;103179.59;;;3.00;72.36
78671;BME280;68277;52.724;6.516;2023-02-28T01:11:51;103177.03;;;3.02;73.51
78671;BME280;68277;52.724;6.516;2023-02-28T01:14:16;103176.97;;;3.00;74.21
78671;BME280;68277;52.724;6.516;2023-02-28T01:16:42;103176.97;;;3.00;73.05
78671;BME280;68277;52.724;6.516;2023-02-28T01:19:08;103176.06;;;3.00;73.43
78671;BME280;68277;52.724;6.516;2023-02-28T01:21:33;103174.34;;;3.00;71.08
78671;BME280;68277;52.724;6.516;2023-02-28T01:24:00;103176.97;;;3.00;71.96
78671;BME280;68277;52.724;6.516;2023-02-28T01:26:25;103174.34;;;3.00;72.65
78671;BME280;68277;52.724;6.516;2023-02-28T01:28:51;103167.41;;;3.01;71.90
78671;BME280;68277;52.724;6.516;2023-02-28T01:31:17;103168.22;;;3.00;72.56
78671;BME280;68277;52.724;6.516;2023-02-28T01:33:43;103168.22;;;3.00;69.86
78671;BME280;68277;52.724;6.516;2023-02-28T01:36:15;103161.28;;;3.00;73.57
78671;BME280;68277;52.724;6.516;2023-02-28T01:38:41;103164.78;;;3.01;73.67
78671;BME280;68277;52.724;6.516;2023-02-28T01:41:07;103158.66;;;3.00;73.02
78671;BME280;68277;52.724;6.516;2023-02-28T01:43:52;103162.09;;;2.99;72.18
78671;BME280;68277;52.724;6.516;2023-02-28T01:46:17;103160.31;;;2.98;67.23
78671;BME280;68277;52.724;6.516;2023-02-28T01:48:48;103143.25;;;2.87;70.94
78671;BME280;68277;52.724;6.516;2023-02-28T01:51:16;103160.38;;;3.00;67.13
78671;BME280;68277;52.724;6.516;2023-02-28T01:53:44;103174.19;;;2.97;68.05
78671;BME280;68277;52.724;6.516;2023-02-28T01:56:11;103162.03;;;2.98;77.84
78671;BME280;68277;52.724;6.516;2023-02-28T01:58:46;103173.25;;;2.95;73.72
78671;BME280;68277;52.724;6.516;2023-02-28T02:01:12;103179.38;;;2.96;72.49
78671;BME280;68277;52.724;6.516;2023-02-28T02:03:49;103173.19;;;2.94;70.79
78671;BME280;68277;52.724;6.516;2023-02-28T02:06:24;103185.38;;;2.93;68.32
78671;BME280;68277;52.724;6.516;2023-02-28T02:08:50;103183.66;;;2.94;73.94
78671;BME280;68277;52.724;6.516;2023-02-28T02:11:17;103194.91;;;2.93;76.14
78671;BME280;68277;52.724;6.516;2023-02-28T02:19:14;103175.66;;;2.91;73.96
78671;BME280;68277;52.724;6.516;2023-02-28T02:39:42;103175.94;;;2.78;77.77
78671;BME280;68277;52.724;6.516;2023-02-28T02:42:27;103174.81;;;2.72;73.12
78671;BME280;68277;52.724;6.516;2023-02-28T02:44:57;103179.09;;;2.70;74.78
78671;BME280;68277;52.724;6.516;2023-02-28T02:47:24;103178.94;;;2.67;77.81
78671;BME280;68277;52.724;6.516;2023-02-28T02:49:53;103180.50;;;2.64;72.82
78671;BME280;68277;52.724;6.516;2023-02-28T02:52:22;103175.19;;;2.62;78.33
78671;BME280;68277;52.724;6.516;2023-02-28T02:54:48;103172.44;;;2.59;75.11
78671;BME280;68277;52.724;6.516;2023-02-28T02:57:21;103174.94;;;2.56;70.88
78671;BME280;68277;52.724;6.516;2023-02-28T02:59:47;103175.72;;;2.55;72.04
78671;BME280;68277;52.724;6.516;2023-02-28T03:02:14;103180.97;;;2.55;75.17
78671;BME280;68277;52.724;6.516;2023-02-28T03:04:43;103173.13;;;2.55;74.26
78671;BME280;68277;52.724;6.516;2023-02-28T03:07:13;103171.41;;;2.56;71.55
78671;BME280;68277;52.724;6.516;2023-02-28T03:09:38;103171.41;;;2.56;72.50
78671;BME280;68277;52.724;6.516;2023-02-28T03:12:04;103175.72;;;2.55;73.36
78671;BME280;68277;52.724;6.516;2023-02-28T03:17:03;103173.13;;;2.55;72.48
78671;BME280;68277;52.724;6.516;2023-02-28T03:24:53;103165.22;;;2.54;74.61
78671;BME280;68277;52.724;6.516;2023-02-28T03:27:27;103166.94;;;2.53;72.42
78671;BME280;68277;52.724;6.516;2023-02-28T03:30:01;103160.81;;;2.53;78.05
78671;BME280;68277;52.724;6.516;2023-02-28T03:32:51;103157.22;;;2.51;74.66
78671;BME280;68277;52.724;6.516;2023-02-28T03:35:18;103163.19;;;2.48;77.05
78671;BME280;68277;52.724;6.516;2023-02-28T03:37:46;103158.88;;;2.49;79.40
78671;BME280;68277;52.724;6.516;2023-02-28T03:40:14;103151.84;;;2.48;73.98
78671;BME280;68277;52.724;6.516;2023-02-28T03:42:41;103150.94;;;2.47;70.82
78671;BME280;68277;52.724;6.516;2023-02-28T03:47:58;103150.13;;;2.48;73.68
78671;BME280;68277;52.724;6.516;2023-02-28T03:50:22;103150.94;;;2.47;70.75
78671;BME280;68277;52.724;6.516;2023-02-28T03:52:50;103160.59;;;2.48;71.28
78671;BME280;68277;52.724;6.516;2023-02-28T03:55:16;103159.69;;;2.48;70.93
78671;BME280;68277;52.724;6.516;2023-02-28T03:58:05;103156.16;;;2.47;73.89
78671;BME280;68277;52.724;6.516;2023-02-28T04:00:32;103159.69;;;2.48;73.46
78671;BME280;68277;52.724;6.516;2023-02-28T04:02:59;103150.94;;;2.47;73.95
78671;BME280;68277;52.724;6.516;2023-02-28T04:05:25;103157.00;;;2.46;71.24
78671;BME280;68277;52.724;6.516;2023-02-28T04:07:50;103156.16;;;2.47;78.22
78671;BME280;68277;52.724;6.516;2023-02-28T04:10:16;103150.94;;;2.47;74.86
78671;BME280;68277;52.724;6.516;2023-02-28T04:12:41;103157.00;;;2.46;76.75
78671;BME280;68277;52.724;6.516;2023-02-28T04:15:06;103170.06;;;2.46;74.13
78671;BME280;68277;52.724;6.516;2023-02-28T04:17:32;103162.25;;;2.46;74.14
78671;BME280;68277;52.724;6.516;2023-02-28T04:19:57;103161.41;;;2.47;73.73
78671;BME280;68277;52.724;6.516;2023-02-28T04:22:23;103160.59;;;2.48;74.39
78671;BME280;68277;52.724;6.516;2023-02-28T04:24:51;103157.06;;;2.48;74.47
78671;BME280;68277;52.724;6.516;2023-02-28T04:27:18;103158.78;;;2.47;72.85
78671;BME280;68277;52.724;6.516;2023-02-28T04:29:43;103168.44;;;2.48;70.46
78671;BME280;68277;52.724;6.516;2023-02-28T04:32:09;103166.72;;;2.49;72.72
78671;BME280;68277;52.724;6.516;2023-02-28T04:34:35;103170.22;;;2.49;73.27
78671;BME280;68277;52.724;6.516;2023-02-28T04:37:00;103161.50;;;2.49;74.20
78671;BME280;68277;52.724;6.516;2023-02-28T04:39:25;103157.97;;;2.48;72.69
78671;BME280;68277;52.724;6.516;2023-02-28T04:41:51;103169.19;;;2.46;73.20
78671;BME280;68277;52.724;6.516;2023-02-28T04:44:16;103167.47;;;2.46;73.41
78671;BME280;68277;52.724;6.516;2023-02-28T04:46:42;103165.66;;;2.45;71.93
78671;BME280;68277;52.724;6.516;2023-02-28T04:49:11;103171.78;;;2.46;73.22
78671;BME280;68277;52.724;6.516;2023-02-28T04:51:36;103171.78;;;2.46;73.60
78671;BME280;68277;52.724;6.516;2023-02-28T04:54:01;103177.91;;;2.46;73.45
78671;BME280;68277;52.724;6.516;2023-02-28T04:56:27;103177.91;;;2.46;77.87
78671;BME280;68277;52.724;6.516;2023-02-28T04:58:53;103169.91;;;2.43;81.15
78671;BME280;68277;52.724;6.516;2023-02-28T05:01:23;103170.66;;;2.41;80.20
78671;BME280;68277;52.724;6.516;2023-02-28T05:03:51;103176.75;;;2.40;79.20
78671;BME280;68277;52.724;6.516;2023-02-28T05:06:16;103170.59;;;2.39;75.44
78671;BME280;68277;52.724;6.516;2023-02-28T05:08:42;103175.00;;;2.40;80.03
78671;BME280;68277;52.724;6.516;2023-02-28T05:11:15;103173.16;;;2.38;79.69
78671;BME280;68277;52.724;6.516;2023-02-28T05:13:41;103174.78;;;2.36;75.52
78671;BME280;68277;52.724;6.516;2023-02-28T05:16:06;103169.56;;;2.36;79.15
78671;BME280;68277;52.724;6.516;2023-02-28T05:18:31;103171.13;;;2.32;77.20
78671;BME280;68277;52.724;6.516;2023-02-28T05:20:57;103170.16;;;2.30;79.64
78671;BME280;68277;52.724;6.516;2023-02-28T05:23:22;103169.94;;;2.26;74.33
78671;BME280;68277;52.724;6.516;2023-02-28T05:25:48;103172.63;;;2.27;75.14
78671;BME280;68277;52.724;6.516;2023-02-28T05:28:13;103177.78;;;2.26;72.66
78671;BME280;68277;52.724;6.516;2023-02-28T05:30:40;103178.59;;;2.25;74.39
78671;BME280;68277;52.724;6.516;2023-02-28T05:33:05;103175.97;;;2.25;76.45
78671;BME280;68277;52.724;6.516;2023-02-28T05:35:31;103175.09;;;2.24;74.96
78671;BME280;68277;52.724;6.516;2023-02-28T05:37:56;103179.56;;;2.27;79.94
78671;BME280;68277;52.724;6.516;2023-02-28T05:40:21;103178.53;;;2.23;75.27
78671;BME280;68277;52.724;6.516;2023-02-28T05:42:47;103180.25;;;2.23;73.45
78671;BME280;68277;52.724;6.516;2023-02-28T05:45:12;103175.94;;;2.23;72.29
78671;BME280;68277;52.724;6.516;2023-02-28T05:47:38;103173.22;;;2.22;71.45
78671;BME280;68277;52.724;6.516;2023-02-28T05:50:04;103183.59;;;2.20;78.64
78671;BME280;68277;52.724;6.516;2023-02-28T05:52:29;103184.41;;;2.19;75.88
78671;BME280;68277;52.724;6.516;2023-02-28T05:54:55;103185.25;;;2.18;73.61
78671;BME280;68277;52.724;6.516;2023-02-28T05:57:20;103177.41;;;2.18;76.04
78671;BME280;68277;52.724;6.516;2023-02-28T05:59:46;103174.81;;;2.18;78.71
78671;BME280;68277;52.724;6.516;2023-02-28T06:02:15;103183.38;;;2.16;76.79
78671;BME280;68277;52.724;6.516;2023-02-28T06:04:40;103191.16;;;2.14;75.27
78671;BME280;68277;52.724;6.516;2023-02-28T06:07:06;103193.75;;;2.14;76.21
78671;BME280;68277;52.724;6.516;2023-02-28T06:09:32;103194.56;;;2.13;74.46
78671;BME280;68277;52.724;6.516;2023-02-28T06:11:58;103194.50;;;2.12;73.94
78671;BME280;68277;52.724;6.516;2023-02-28T06:14:23;103199.63;;;2.10;75.00
78671;BME280;68277;52.724;6.516;2023-02-28T06:16:49;103192.69;;;2.11;72.40
78671;BME280;68277;52.724;6.516;2023-02-28T06:19:14;103187.53;;;2.12;77.56
78671;BME280;68277;52.724;6.516;2023-02-28T06:21:40;103186.56;;;2.10;74.19
78671;BME280;68277;52.724;6.516;2023-02-28T06:24:06;103183.91;;;2.08;72.48
78671;BME280;68277;52.724;6.516;2023-02-28T06:26:31;103192.63;;;2.09;72.99
78671;BME280;68277;52.724;6.516;2023-02-28T06:28:56;103197.94;;;2.11;72.61
78671;BME280;68277;52.724;6.516;2023-02-28T06:31:22;103193.59;;;2.11;73.95
78671;BME280;68277;52.724;6.516;2023-02-28T06:33:47;103184.94;;;2.12;73.86
78671;BME280;68277;52.724;6.516;2023-02-28T06:36:13;103189.34;;;2.13;79.85
78671;BME280;68277;52.724;6.516;2023-02-28T06:38:39;103191.06;;;2.13;77.02
78671;BME280;68277;52.724;6.516;2023-02-28T06:41:07;103203.31;;;2.14;76.15
78671;BME280;68277;52.724;6.516;2023-02-28T06:43:34;103198.16;;;2.15;75.38
78671;BME280;68277;52.724;6.516;2023-02-28T06:46:01;103192.13;;;2.16;78.71
78671;BME280;68277;52.724;6.516;2023-02-28T06:48:26;103212.19;;;2.17;79.17
78671;BME280;68277;52.724;6.516;2023-02-28T06:50:52;103209.78;;;2.22;78.90
78671;BME280;68277;52.724;6.516;2023-02-28T06:53:17;103215.00;;;2.22;74.78
78671;BME280;68277;52.724;6.516;2023-02-28T06:55:42;103220.34;;;2.23;74.84
78671;BME280;68277;52.724;6.516;2023-02-28T06:58:11;103224.88;;;2.27;78.51
78671;BME280;68277;52.724;6.516;2023-02-28T07:00:43;103222.34;;;2.29;77.21
78671;BME280;68277;52.724;6.516;2023-02-28T07:03:09;103221.59;;;2.31;78.40
78671;BME280;68277;52.724;6.516;2023-02-28T07:05:35;103226.00;;;2.32;75.71
78671;BME280;68277;52.724;6.516;2023-02-28T07:08:03;103234.81;;;2.34;76.16
78671;BME280;68277;52.724;6.516;2023-02-28T07:10:29;103239.34;;;2.38;81.20
78671;BME280;68277;52.724;6.516;2023-02-28T07:12:54;103235.94;;;2.39;78.81
78671;BME280;68277;52.724;6.516;2023-02-28T07:15:19;103226.44;;;2.41;76.89
78671;BME280;68277;52.724;6.516;2023-02-28T07:17:45;103231.91;;;2.46;78.61
78671;BME280;68277;52.724;6.516;2023-02-28T07:20:10;103228.53;;;2.48;77.64
78671;BME280;68277;52.724;6.516;2023-02-28T07:22:36;103242.66;;;2.52;74.75
78671;BME280;68277;52.724;6.516;2023-02-28T07:25:01;103241.97;;;2.56;78.87
78671;BME280;68277;52.724;6.516;2023-02-28T07:27:26;103239.53;;;2.59;80.32
78671;BME280;68277;52.724;6.516;2023-02-28T07:29:52;103239.00;;;2.66;79.19
78671;BME280;68277;52.724;6.516;2023-02-28T07:32:19;103240.97;;;2.71;78.75
78671;BME280;68277;52.724;6.516;2023-02-28T07:34:45;103242.03;;;2.75;80.50
78671;BME280;68277;52.724;6.516;2023-02-28T07:37:10;103249.19;;;2.79;77.33
78671;BME280;68277;52.724;6.516;2023-02-28T07:39:35;103248.72;;;2.88;80.71
78671;BME280;68277;52.724;6.516;2023-02-28T07:42:04;103249.25;;;2.98;81.40
78671;BME280;68277;52.724;6.516;2023-02-28T07:44:29;103250.56;;;3.08;77.67
78671;BME280;68277;52.724;6.516;2023-02-28T07:46:54;103256.81;;;3.11;75.11
78671;BME280;68277;52.724;6.516;2023-02-28T07:49:19;103258.28;;;3.24;79.07
78671;BME280;68277;52.724;6.516;2023-02-28T07:51:45;103254.25;;;3.50;74.72
78671;BME280;68277;52.724;6.516;2023-02-28T07:54:10;103249.38;;;3.78;73.20
78671;BME280;68277;52.724;6.516;2023-02-28T07:56:35;103246.56;;;4.13;74.62
78671;BME280;68277;52.724;6.516;2023-02-28T07:59:00;103239.19;;;4.46;75.17
78671;BME280;68277;52.724;6.516;2023-02-28T08:01:26;103241.72;;;4.65;74.63
78671;BME280;68277;52.724;6.516;2023-02-28T08:03:51;103248.66;;;4.85;73.71
78671;BME280;68277;52.724;6.516;2023-02-28T08:06:22;103243.81;;;5.18;70.81
78671;BME280;68277;52.724;6.516;2023-02-28T08:08:48;103242.63;;;5.81;68.58
78671;BME280;68277;52.724;6.516;2023-02-28T08:11:14;103243.44;;;6.82;65.85
78671;BME280;68277;52.724;6.516;2023-02-28T08:13:39;103246.47;;;7.24;64.92
78671;BME280;68277;52.724;6.516;2023-02-28T08:16:05;103237.47;;;8.09;61.20
78671;BME280;68277;52.724;6.516;2023-02-28T08:18:30;103239.03;;;9.97;55.57
78671;BME280;68277;52.724;6.516;2023-02-28T08:20:55;103230.09;;;12.56;48.30
78671;BME280;68277;52.724;6.516;2023-02-28T08:23:21;103223.66;;;14.99;41.15
78671;BME280;68277;52.724;6.516;2023-02-28T08:25:56;103219.25;;;16.49;39.15
78671;BME280;68277;52.724;6.516;2023-02-28T08:28:22;103224.88;;;17.08;36.55
78671;BME280;68277;52.724;6.516;2023-02-28T08:30:47;103218.91;;;16.82;35.79
78671;BME280;68277;52.724;6.516;2023-02-28T08:33:12;103236.84;;;16.77;38.61
78671;BME280;68277;52.724;6.516;2023-02-28T08:35:37;103228.44;;;16.14;36.97
78671;BME280;68277;52.724;6.516;2023-02-28T08:38:03;103235.06;;;15.44;36.83
78671;BME280;68277;52.724;6.516;2023-02-28T08:40:28;103228.16;;;14.42;38.72
78671;BME280;68277;52.724;6.516;2023-02-28T08:42:53;103239.03;;;12.64;41.08
78671;BME280;68277;52.724;6.516;2023-02-28T08:45:18;103230.66;;;12.17;43.67
78671;BME280;68277;52.724;6.516;2023-02-28T08:47:44;103238.78;;;14.01;40.76
78671;BME280;68277;52.724;6.516;2023-02-28T08:50:09;103221.88;;;15.01;36.71
78671;BME280;68277;52.724;6.516;2023-02-28T08:52:35;103230.75;;;13.80;38.99
78671;BME280;68277;52.724;6.516;2023-02-28T08:55:00;103239.75;;;11.59;45.02
78671;BME280;68277;52.724;6.516;2023-02-28T08:57:25;103247.75;;;9.91;48.92
78671;BME280;68277;52.724;6.516;2023-02-28T08:59:53;103251.47;;;8.77;51.29
78671;BME280;68277;52.724;6.516;2023-02-28T09:02:19;103256.22;;;8.54;52.91
78671;BME280;68277;52.724;6.516;2023-02-28T09:04:44;103244.53;;;11.89;46.15
78671;BME280;68277;52.724;6.516;2023-02-28T09:07:13;103227.97;;;15.40;38.10
78671;BME280;68277;52.724;6.516;2023-02-28T09:09:38;103224.81;;;17.14;33.87
78671;BME280;68277;52.724;6.516;2023-02-28T09:12:18;103223.22;;;17.69;32.45
78671;BME280;68277;52.724;6.516;2023-02-28T09:14:43;103232.38;;;17.50;31.81
78671;BME280;68277;52.724;6.516;2023-02-28T09:17:09;103237.81;;;15.20;39.24
78671;BME280;68277;52.724;6.516;2023-02-28T09:19:34;103241.22;;;13.30;34.86
78671;BME280;68277;52.724;6.516;2023-02-28T09:21:59;103236.97;;;13.77;37.21
78671;BME280;68277;52.724;6.516;2023-02-28T09:24:24;103239.66;;;15.02;39.24
78671;BME280;68277;52.724;6.516;2023-02-28T09:26:50;103241.56;;;16.40;33.96
78671;BME280;68277;52.724;6.516;2023-02-28T09:29:15;103236.44;;;17.10;29.71
78671;BME280;68277;52.724;6.516;2023-02-28T09:31:42;103227.34;;;17.26;31.52
78671;BME280;68277;52.724;6.516;2023-02-28T09:34:07;103231.97;;;17.14;29.64
78671;BME280;68277;52.724;6.516;2023-02-28T09:36:32;103232.44;;;17.47;27.75
78671;BME280;68277;52.724;6.516;2023-02-28T09:38:58;103236.09;;;18.04;27.03
78671;BME280;68277;52.724;6.516;2023-02-28T09:41:24;103243.84;;;16.87;28.29
78671;BME280;68277;52.724;6.516;2023-02-28T09:43:55;103242.78;;;17.01;26.74
78671;BME280;68277;52.724;6.516;2023-02-28T09:48:46;103231.81;;;17.94;24.57
78671;BME280;68277;52.724;6.516;2023-02-28T09:53:38;103232.53;;;19.07;25.36
78671;BME280;68277;52.724;6.516;2023-02-28T09:56:08;103232.44;;;18.65;25.90
78671;BME280;68277;52.724;6.516;2023-02-28T09:58:45;103232.94;;;18.86;26.40
78671;BME280;68277;52.724;6.516;2023-02-28T10:04:14;103223.69;;;19.01;24.40
78671;BME280;68277;52.724;6.516;2023-02-28T10:06:43;103230.69;;;18.09;22.11
78671;BME280;68277;52.724;6.516;2023-02-28T10:09:21;103227.84;;;17.58;23.55
78671;BME280;68277;52.724;6.516;2023-02-28T10:11:48;103232.28;;;18.19;24.22
78671;BME280;68277;52.724;6.516;2023-02-28T10:14:18;103244.81;;;16.80;26.96
78671;BME280;68277;52.724;6.516;2023-02-28T10:16:45;103246.72;;;16.66;24.82
78671;BME280;68277;52.724;6.516;2023-02-28T10:19:24;103237.72;;;16.76;26.27
78671;BME280;68277;52.724;6.516;2023-02-28T10:21:54;103234.56;;;17.21;26.06
78671;BME280;68277;52.724;6.516;2023-02-28T10:27:01;103233.13;;;15.76;28.90
78671;BME280;68277;52.724;6.516;2023-02-28T10:29:30;103244.13;;;14.84;31.78
78671;BME280;68277;52.724;6.516;2023-02-28T10:31:56;103249.31;;;13.57;32.94
78671;BME280;68277;52.724;6.516;2023-02-28T10:34:23;103251.41;;;12.63;34.83
78671;BME280;68277;52.724;6.516;2023-02-28T10:36:49;103249.72;;;12.73;36.11
78671;BME280;68277;52.724;6.516;2023-02-28T10:39:33;103241.16;;;13.24;31.61
78671;BME280;68277;52.724;6.516;2023-02-28T10:41:59;103245.63;;;13.26;32.98
78671;BME280;68277;52.724;6.516;2023-02-28T10:44:24;103243.78;;;13.15;33.93
78671;BME280;68277;52.724;6.516;2023-02-28T10:46:49;103235.13;;;12.22;34.62
78671;BME280;68277;52.724;6.516;2023-02-28T10:49:23;103245.53;;;12.01;37.19
78671;BME280;68277;52.724;6.516;2023-02-28T10:51:51;103240.41;;;12.18;37.22
78671;BME280;68277;52.724;6.516;2023-02-28T10:54:22;103237.94;;;12.36;37.59
78671;BME280;68277;52.724;6.516;2023-02-28T10:59:34;103237.63;;;12.03;31.20
78671;BME280;68277;52.724;6.516;2023-02-28T11:01:59;103236.91;;;12.23;33.12
78671;BME280;68277;52.724;6.516;2023-02-28T11:07:21;103232.47;;;12.19;31.11
78671;BME280;68277;52.724;6.516;2023-02-28T11:09:50;103225.28;;;12.08;30.85
78671;BME280;68277;52.724;6.516;2023-02-28T11:12:20;103231.25;;;11.86;31.22
78671;BME280;68277;52.724;6.516;2023-02-28T11:14:50;103238.72;;;11.48;35.08
78671;BME280;68277;52.724;6.516;2023-02-28T11:17:20;103239.13;;;11.11;33.11
78671;BME280;68277;52.724;6.516;2023-02-28T11:19:47;103237.16;;;10.94;33.68
78671;BME280;68277;52.724;6.516;2023-02-28T11:22:17;103228.84;;;10.72;34.63
78671;BME280;68277;52.724;6.516;2023-02-28T11:24:44;103230.13;;;10.41;33.26
78671;BME280;68277;52.724;6.516;2023-02-28T11:27:46;103229.78;;;9.75;34.81
78671;BME280;68277;52.724;6.516;2023-02-28T11:30:03;103226.31;;;9.78;37.37
78671;BME280;68277;52.724;6.516;2023-02-28T11:32:29;103227.28;;;9.80;35.56
78671;BME280;68277;52.724;6.516;2023-02-28T11:37:35;103229.91;;;9.80;35.65
78671;BME280;68277;52.724;6.516;2023-02-28T11:40:01;103212.94;;;9.69;36.59
78671;BME280;68277;52.724;6.516;2023-02-28T11:42:41;103218.13;;;9.64;37.62
78671;BME280;68277;52.724;6.516;2023-02-28T11:53:05;103212.66;;;9.53;37.54
78671;BME280;68277;52.724;6.516;2023-02-28T12:00:59;103216.00;;;9.05;39.74
78671;BME280;68277;52.724;6.516;2023-02-28T12:08:40;103208.78;;;8.96;38.26
78671;BME280;68277;52.724;6.516;2023-02-28T12:11:13;103203.59;;;8.99;38.85
78671;BME280;68277;52.724;6.516;2023-02-28T12:13:48;103202.63;;;8.95;38.22
78671;BME280;68277;52.724;6.516;2023-02-28T12:21:20;103197.88;;;8.81;39.10
78671;BME280;68277;52.724;6.516;2023-02-28T12:26:32;103195.84;;;9.08;39.28
78671;BME280;68277;52.724;6.516;2023-02-28T12:29:02;103197.50;;;9.03;38.39
78671;BME280;68277;52.724;6.516;2023-02-28T12:31:29;103196.44;;;8.95;38.48
78671;BME280;68277;52.724;6.516;2023-02-28T12:33:59;103194.94;;;8.67;37.36
78671;BME280;68277;52.724;6.516;2023-02-28T12:36:26;103190.66;;;8.72;39.39
78671;BME280;68277;52.724;6.516;2023-02-28T12:39:02;103187.09;;;8.70;37.15
78671;BME280;68277;52.724;6.516;2023-02-28T12:41:51;103190.69;;;8.74;38.82
78671;BME280;68277;52.724;6.516;2023-02-28T12:44:19;103186.00;;;8.62;37.33
78671;BME280;68277;52.724;6.516;2023-02-28T12:46:47;103178.97;;;8.61;39.24
78671;BME280;68277;52.724;6.516;2023-02-28T12:51:56;103176.50;;;8.69;36.92
78671;BME280;68277;52.724;6.516;2023-02-28T12:57:10;103167.06;;;8.80;37.11
78671;BME280;68277;52.724;6.516;2023-02-28T13:07:43;103155.59;;;8.78;38.24
78671;BME280;68277;52.724;6.516;2023-02-28T13:10:14;103161.03;;;8.85;38.17
78671;BME280;68277;52.724;6.516;2023-02-28T13:12:48;103149.22;;;8.70;39.08
78671;BME280;68277;52.724;6.516;2023-02-28T13:15:24;103149.22;;;8.70;39.34
78671;BME280;68277;52.724;6.516;2023-02-28T13:17:51;103141.50;;;8.79;39.36
78671;BME280;68277;52.724;6.516;2023-02-28T13:20:21;103140.97;;;8.95;39.91
78671;BME280;68277;52.724;6.516;2023-02-28T13:22:49;103123.63;;;9.08;39.26
78671;BME280;68277;52.724;6.516;2023-02-28T13:25:59;103129.81;;;9.08;38.78
78671;BME280;68277;52.724;6.516;2023-02-28T13:28:00;103119.31;;;9.11;39.82
78671;BME280;68277;52.724;6.516;2023-02-28T13:36:10;103121.16;;;9.15;36.41
78671;BME280;68277;52.724;6.516;2023-02-28T13:38:47;103121.88;;;9.07;38.18
78671;BME280;68277;52.724;6.516;2023-02-28T13:49:25;103127.31;;;8.74;38.66
78671;BME280;68277;52.724;6.516;2023-02-28T14:00:05;103123.63;;;8.66;39.77
78671;BME280;68277;52.724;6.516;2023-02-28T14:05:17;103119.31;;;8.69;38.16
78671;BME280;68277;52.724;6.516;2023-02-28T14:07:45;103114.53;;;8.52;38.70
78671;BME280;68277;52.724;6.516;2023-02-28T14:10:25;103117.09;;;8.49;39.13
78671;BME280;68277;52.724;6.516;2023-02-28T14:15:27;103127.91;;;8.61;39.05
78671;BME280;68277;52.724;6.516;2023-02-28T14:17:56;103121.47;;;8.48;39.56
78671;BME280;68277;52.724;6.516;2023-02-28T14:20:27;103129.28;;;8.44;38.69
78671;BME280;68277;52.724;6.516;2023-02-28T14:25:27;103116.91;;;8.41;39.78
78671;BME280;68277;52.724;6.516;2023-02-28T14:35:51;103116.16;;;8.47;40.01
78671;BME280;68277;52.724;6.516;2023-02-28T14:38:23;103117.38;;;8.61;41.25
78671;BME280;68277;52.724;6.516;2023-02-28T14:40:51;103113.19;;;8.72;40.34
78671;BME280;68277;52.724;6.516;2023-02-28T14:43:21;103108.84;;;8.74;39.88
78671;BME280;68277;52.724;6.516;2023-02-28T14:45:51;103117.66;;;8.74;39.84
78671;BME280;68277;52.724;6.516;2023-02-28T14:48:17;103107.72;;;8.63;40.61
78671;BME280;68277;52.724;6.516;2023-02-28T14:50:48;103113.81;;;8.59;42.31
78671;BME280;68277;52.724;6.516;2023-02-28T14:53:15;103112.88;;;8.57;40.82
78671;BME280;68277;52.724;6.516;2023-02-28T14:55:44;103109.19;;;8.50;41.19
78671;BME280;68277;52.724;6.516;2023-02-28T14:58:23;103105.59;;;8.45;40.79
78671;BME280;68277;52.724;6.516;2023-02-28T15:00:49;103100.50;;;8.54;42.69
78671;BME280;68277;52.724;6.516;2023-02-28T15:03:22;103100.69;;;8.62;40.23
78671;BME280;68277;52.724;6.516;2023-02-28T15:05:52;103101.69;;;8.68;40.32
78671;BME280;68277;52.724;6.516;2023-02-28T15:08:18;103101.53;;;8.62;40.83
78671;BME280;68277;52.724;6.516;2023-02-28T15:10:49;103105.00;;;8.58;40.56